KBMC

Brigham City Airport

Brigham City, Utah, USA
METAR KBMC 150315Z AUTO 32003KT 10SM CLR 29/01 A2997 RMK AO1 T02850010
Observed Flight Rules
Aug-15 @ 03:15 UTC (20 minutes ago) Visual Flight Rules
Wind Visibility Clouds
320° at 3 knots 10 miles
  • Clear skies
Temperatures Readings
Current 29°C / 84°F
Dewpoint 1°C / 34°F
Humidity 16%
Altimeter 29.97" Hg
Pressure 1015 hPa
Elevation 1288
METAR KBMC 150315Z AUTO 32003KT 10SM CLR 29/01 A2997 RMK AO1 T02850010
Observed Flight Rules
Aug-15 @ 03:15 UTC
(20 minutes ago)
VFR
Wind Visibility
320° at 3 knots 10 miles
Clouds
  • Clear skies
Temperature Dewpoint
29°C / 84°F 1°C / 34°F
Humidity Altimeter Pressure
16% 29.97" Hg 1015 hPa